sensor_id;sensor_type;location;lat;lon;timestamp;P1;durP1;ratioP1;P2;durP2;ratioP2
29908;SDS011;36247;51.952;6.146;2022-07-04T00:00:30;9.05;;;4.90;;
29908;SDS011;36247;51.952;6.146;2022-07-04T00:02:55;8.88;;;4.40;;
29908;SDS011;36247;51.952;6.146;2022-07-04T00:05:21;12.80;;;4.43;;
29908;SDS011;36247;51.952;6.146;2022-07-04T00:07:47;9.40;;;4.60;;
29908;SDS011;36247;51.952;6.146;2022-07-04T00:10:15;6.72;;;3.85;;
29908;SDS011;36247;51.952;6.146;2022-07-04T00:12:42;12.65;;;5.10;;
29908;SDS011;36247;51.952;6.146;2022-07-04T00:15:09;7.05;;;4.20;;
29908;SDS011;36247;51.952;6.146;2022-07-04T00:17:36;7.00;;;4.55;;
29908;SDS011;36247;51.952;6.146;2022-07-04T00:20:02;5.63;;;4.60;;
29908;SDS011;36247;51.952;6.146;2022-07-04T00:22:29;7.63;;;4.50;;
29908;SDS011;36247;51.952;6.146;2022-07-04T00:24:55;7.57;;;4.45;;
29908;SDS011;36247;51.952;6.146;2022-07-04T00:27:20;5.95;;;4.38;;
29908;SDS011;36247;51.952;6.146;2022-07-04T00:29:46;7.10;;;4.13;;
29908;SDS011;36247;51.952;6.146;2022-07-04T00:32:11;8.15;;;4.55;;
29908;SDS011;36247;51.952;6.146;2022-07-04T00:34:36;10.50;;;4.55;;
29908;SDS011;36247;51.952;6.146;2022-07-04T00:37:02;9.00;;;5.10;;
29908;SDS011;36247;51.952;6.146;2022-07-04T00:39:28;8.05;;;5.18;;
29908;SDS011;36247;51.952;6.146;2022-07-04T00:41:54;9.10;;;4.90;;
29908;SDS011;36247;51.952;6.146;2022-07-04T00:44:19;5.60;;;5.00;;
29908;SDS011;36247;51.952;6.146;2022-07-04T00:46:45;13.23;;;5.70;;
29908;SDS011;36247;51.952;6.146;2022-07-04T00:49:12;9.10;;;5.25;;
29908;SDS011;36247;51.952;6.146;2022-07-04T00:51:39;9.18;;;4.70;;
29908;SDS011;36247;51.952;6.146;2022-07-04T00:54:10;9.18;;;5.63;;
29908;SDS011;36247;51.952;6.146;2022-07-04T00:56:37;9.15;;;4.68;;
29908;SDS011;36247;51.952;6.146;2022-07-04T00:59:04;11.05;;;6.47;;
29908;SDS011;36247;51.952;6.146;2022-07-04T01:01:30;14.38;;;5.72;;
29908;SDS011;36247;51.952;6.146;2022-07-04T01:03:56;13.65;;;5.22;;
29908;SDS011;36247;51.952;6.146;2022-07-04T01:06:22;7.40;;;4.97;;
29908;SDS011;36247;51.952;6.146;2022-07-04T01:08:48;9.00;;;5.45;;
29908;SDS011;36247;51.952;6.146;2022-07-04T01:11:14;8.70;;;5.53;;
29908;SDS011;36247;51.952;6.146;2022-07-04T01:13:41;9.07;;;5.50;;
29908;SDS011;36247;51.952;6.146;2022-07-04T01:16:09;10.20;;;5.40;;
29908;SDS011;36247;51.952;6.146;2022-07-04T01:18:36;14.95;;;6.68;;
29908;SDS011;36247;51.952;6.146;2022-07-04T01:21:02;7.45;;;5.43;;
29908;SDS011;36247;51.952;6.146;2022-07-04T01:23:29;11.98;;;6.35;;
29908;SDS011;36247;51.952;6.146;2022-07-04T01:25:55;8.23;;;5.60;;
29908;SDS011;36247;51.952;6.146;2022-07-04T01:28:22;9.23;;;5.85;;
29908;SDS011;36247;51.952;6.146;2022-07-04T01:30:48;9.88;;;5.40;;
29908;SDS011;36247;51.952;6.146;2022-07-04T01:33:14;6.63;;;5.55;;
29908;SDS011;36247;51.952;6.146;2022-07-04T01:35:42;7.70;;;5.53;;
29908;SDS011;36247;51.952;6.146;2022-07-04T01:38:09;6.95;;;4.85;;
29908;SDS011;36247;51.952;6.146;2022-07-04T01:40:35;7.72;;;5.50;;
29908;SDS011;36247;51.952;6.146;2022-07-04T01:43:00;10.98;;;4.38;;
29908;SDS011;36247;51.952;6.146;2022-07-04T01:45:26;9.82;;;4.70;;
29908;SDS011;36247;51.952;6.146;2022-07-04T01:47:51;6.95;;;4.53;;
29908;SDS011;36247;51.952;6.146;2022-07-04T01:50:17;8.52;;;5.25;;
29908;SDS011;36247;51.952;6.146;2022-07-04T01:52:42;4.38;;;3.45;;
29908;SDS011;36247;51.952;6.146;2022-07-04T01:55:09;6.82;;;3.60;;
29908;SDS011;36247;51.952;6.146;2022-07-04T01:57:36;7.72;;;4.30;;
29908;SDS011;36247;51.952;6.146;2022-07-04T02:00:03;8.23;;;4.38;;
29908;SDS011;36247;51.952;6.146;2022-07-04T02:02:51;4.53;;;4.10;;
29908;SDS011;36247;51.952;6.146;2022-07-04T02:05:17;5.18;;;4.05;;
29908;SDS011;36247;51.952;6.146;2022-07-04T02:07:45;6.00;;;4.60;;
29908;SDS011;36247;51.952;6.146;2022-07-04T02:10:11;4.93;;;4.43;;
29908;SDS011;36247;51.952;6.146;2022-07-04T02:12:36;6.18;;;4.65;;
29908;SDS011;36247;51.952;6.146;2022-07-04T02:15:20;4.32;;;3.92;;
29908;SDS011;36247;51.952;6.146;2022-07-04T02:17:47;5.40;;;4.28;;
29908;SDS011;36247;51.952;6.146;2022-07-04T02:20:13;9.23;;;4.90;;
29908;SDS011;36247;51.952;6.146;2022-07-04T02:22:39;6.05;;;4.75;;
29908;SDS011;36247;51.952;6.146;2022-07-04T02:25:04;9.25;;;4.85;;
29908;SDS011;36247;51.952;6.146;2022-07-04T02:27:30;7.65;;;5.38;;
29908;SDS011;36247;51.952;6.146;2022-07-04T02:29:56;8.52;;;5.10;;
29908;SDS011;36247;51.952;6.146;2022-07-04T02:32:21;4.35;;;3.85;;
29908;SDS011;36247;51.952;6.146;2022-07-04T02:34:46;8.95;;;4.03;;
29908;SDS011;36247;51.952;6.146;2022-07-04T02:37:12;4.40;;;3.80;;
29908;SDS011;36247;51.952;6.146;2022-07-04T02:39:38;5.90;;;4.50;;
29908;SDS011;36247;51.952;6.146;2022-07-04T02:42:03;6.55;;;3.60;;
29908;SDS011;36247;51.952;6.146;2022-07-04T02:44:29;4.82;;;3.75;;
29908;SDS011;36247;51.952;6.146;2022-07-04T02:46:55;9.85;;;5.75;;
29908;SDS011;36247;51.952;6.146;2022-07-04T02:49:21;6.85;;;5.57;;
29908;SDS011;36247;51.952;6.146;2022-07-04T02:51:46;14.68;;;7.22;;
29908;SDS011;36247;51.952;6.146;2022-07-04T02:54:11;7.60;;;6.10;;
29908;SDS011;36247;51.952;6.146;2022-07-04T02:56:37;7.43;;;5.60;;
29908;SDS011;36247;51.952;6.146;2022-07-04T02:59:02;8.70;;;6.07;;
29908;SDS011;36247;51.952;6.146;2022-07-04T03:01:28;7.55;;;5.82;;
29908;SDS011;36247;51.952;6.146;2022-07-04T03:03:54;7.45;;;5.88;;
29908;SDS011;36247;51.952;6.146;2022-07-04T03:06:19;5.85;;;4.90;;
29908;SDS011;36247;51.952;6.146;2022-07-04T03:08:45;10.88;;;5.97;;
29908;SDS011;36247;51.952;6.146;2022-07-04T03:11:10;11.15;;;6.03;;
29908;SDS011;36247;51.952;6.146;2022-07-04T03:13:36;9.10;;;5.97;;
29908;SDS011;36247;51.952;6.146;2022-07-04T03:16:04;10.00;;;6.18;;
29908;SDS011;36247;51.952;6.146;2022-07-04T03:18:30;8.30;;;5.90;;
29908;SDS011;36247;51.952;6.146;2022-07-04T03:20:55;4.78;;;4.25;;
29908;SDS011;36247;51.952;6.146;2022-07-04T03:23:21;8.00;;;5.20;;
29908;SDS011;36247;51.952;6.146;2022-07-04T03:25:46;7.40;;;5.78;;
29908;SDS011;36247;51.952;6.146;2022-07-04T03:28:12;6.10;;;5.28;;
29908;SDS011;36247;51.952;6.146;2022-07-04T03:30:37;6.72;;;5.55;;
29908;SDS011;36247;51.952;6.146;2022-07-04T03:33:02;10.07;;;5.75;;
29908;SDS011;36247;51.952;6.146;2022-07-04T03:35:28;8.07;;;5.35;;
29908;SDS011;36247;51.952;6.146;2022-07-04T03:37:54;11.77;;;7.20;;
29908;SDS011;36247;51.952;6.146;2022-07-04T03:40:20;7.47;;;5.90;;
29908;SDS011;36247;51.952;6.146;2022-07-04T03:42:46;9.15;;;7.03;;
29908;SDS011;36247;51.952;6.146;2022-07-04T03:45:11;9.00;;;6.68;;
29908;SDS011;36247;51.952;6.146;2022-07-04T03:47:37;10.50;;;7.25;;
29908;SDS011;36247;51.952;6.146;2022-07-04T03:50:02;11.15;;;7.10;;
29908;SDS011;36247;51.952;6.146;2022-07-04T03:52:29;8.65;;;7.47;;
29908;SDS011;36247;51.952;6.146;2022-07-04T03:54:55;12.57;;;8.27;;
29908;SDS011;36247;51.952;6.146;2022-07-04T03:57:21;10.05;;;7.22;;
29908;SDS011;36247;51.952;6.146;2022-07-04T03:59:46;12.35;;;7.18;;
29908;SDS011;36247;51.952;6.146;2022-07-04T04:02:12;8.20;;;7.05;;
29908;SDS011;36247;51.952;6.146;2022-07-04T04:04:37;12.65;;;7.97;;
29908;SDS011;36247;51.952;6.146;2022-07-04T04:07:22;10.98;;;8.18;;
29908;SDS011;36247;51.952;6.146;2022-07-04T04:09:47;11.02;;;8.05;;
29908;SDS011;36247;51.952;6.146;2022-07-04T04:12:13;12.52;;;9.05;;
29908;SDS011;36247;51.952;6.146;2022-07-04T04:14:38;11.85;;;9.05;;
29908;SDS011;36247;51.952;6.146;2022-07-04T04:17:04;18.48;;;10.45;;
29908;SDS011;36247;51.952;6.146;2022-07-04T04:19:29;13.60;;;9.50;;
29908;SDS011;36247;51.952;6.146;2022-07-04T04:21:55;17.52;;;11.80;;
29908;SDS011;36247;51.952;6.146;2022-07-04T04:24:20;19.35;;;10.48;;
29908;SDS011;36247;51.952;6.146;2022-07-04T04:26:46;17.48;;;10.65;;
29908;SDS011;36247;51.952;6.146;2022-07-04T04:29:11;19.17;;;11.00;;
29908;SDS011;36247;51.952;6.146;2022-07-04T04:31:37;18.08;;;10.80;;
29908;SDS011;36247;51.952;6.146;2022-07-04T04:34:02;18.10;;;11.20;;
29908;SDS011;36247;51.952;6.146;2022-07-04T04:36:28;18.02;;;10.35;;
29908;SDS011;36247;51.952;6.146;2022-07-04T04:38:54;16.35;;;11.18;;
29908;SDS011;36247;51.952;6.146;2022-07-04T04:41:19;18.45;;;14.05;;
29908;SDS011;36247;51.952;6.146;2022-07-04T04:43:45;20.67;;;14.80;;
29908;SDS011;36247;51.952;6.146;2022-07-04T04:46:10;19.58;;;13.02;;
29908;SDS011;36247;51.952;6.146;2022-07-04T04:48:35;17.63;;;13.35;;
29908;SDS011;36247;51.952;6.146;2022-07-04T04:51:01;19.90;;;13.68;;
29908;SDS011;36247;51.952;6.146;2022-07-04T04:53:26;20.17;;;12.73;;
29908;SDS011;36247;51.952;6.146;2022-07-04T04:55:52;19.08;;;13.20;;
29908;SDS011;36247;51.952;6.146;2022-07-04T04:58:21;19.15;;;12.60;;
29908;SDS011;36247;51.952;6.146;2022-07-04T05:00:46;18.13;;;12.77;;
29908;SDS011;36247;51.952;6.146;2022-07-04T05:03:17;15.57;;;11.35;;
29908;SDS011;36247;51.952;6.146;2022-07-04T05:05:44;18.33;;;11.63;;
29908;SDS011;36247;51.952;6.146;2022-07-04T05:08:10;15.23;;;10.30;;
29908;SDS011;36247;51.952;6.146;2022-07-04T05:10:37;15.88;;;10.73;;
29908;SDS011;36247;51.952;6.146;2022-07-04T05:13:06;16.40;;;11.02;;
29908;SDS011;36247;51.952;6.146;2022-07-04T05:15:32;15.88;;;11.18;;
29908;SDS011;36247;51.952;6.146;2022-07-04T05:17:58;15.45;;;10.63;;
29908;SDS011;36247;51.952;6.146;2022-07-04T05:20:24;15.80;;;9.98;;
29908;SDS011;36247;51.952;6.146;2022-07-04T05:22:50;19.45;;;10.35;;
29908;SDS011;36247;51.952;6.146;2022-07-04T05:25:15;17.63;;;9.57;;
29908;SDS011;36247;51.952;6.146;2022-07-04T05:27:41;15.02;;;9.57;;
29908;SDS011;36247;51.952;6.146;2022-07-04T05:30:07;13.98;;;8.68;;
29908;SDS011;36247;51.952;6.146;2022-07-04T05:32:33;10.63;;;8.02;;
29908;SDS011;36247;51.952;6.146;2022-07-04T05:34:59;9.02;;;7.25;;
29908;SDS011;36247;51.952;6.146;2022-07-04T05:37:25;16.20;;;7.68;;
29908;SDS011;36247;51.952;6.146;2022-07-04T05:39:51;13.20;;;7.40;;
29908;SDS011;36247;51.952;6.146;2022-07-04T05:42:17;14.50;;;7.90;;
29908;SDS011;36247;51.952;6.146;2022-07-04T05:44:43;9.68;;;7.40;;
29908;SDS011;36247;51.952;6.146;2022-07-04T05:47:09;11.32;;;7.43;;
29908;SDS011;36247;51.952;6.146;2022-07-04T05:49:34;12.23;;;6.13;;
29908;SDS011;36247;51.952;6.146;2022-07-04T05:52:00;11.43;;;6.80;;
29908;SDS011;36247;51.952;6.146;2022-07-04T05:54:27;12.20;;;6.00;;
29908;SDS011;36247;51.952;6.146;2022-07-04T05:56:53;11.60;;;5.78;;
29908;SDS011;36247;51.952;6.146;2022-07-04T05:59:18;11.25;;;6.15;;
29908;SDS011;36247;51.952;6.146;2022-07-04T06:01:44;8.18;;;5.60;;
29908;SDS011;36247;51.952;6.146;2022-07-04T06:04:10;12.25;;;6.70;;
29908;SDS011;36247;51.952;6.146;2022-07-04T06:06:35;10.20;;;5.25;;
29908;SDS011;36247;51.952;6.146;2022-07-04T06:09:01;7.53;;;4.78;;
29908;SDS011;36247;51.952;6.146;2022-07-04T06:11:28;14.40;;;5.80;;
29908;SDS011;36247;51.952;6.146;2022-07-04T06:13:54;12.32;;;5.93;;
29908;SDS011;36247;51.952;6.146;2022-07-04T06:16:19;9.02;;;6.05;;
29908;SDS011;36247;51.952;6.146;2022-07-04T06:18:45;14.63;;;5.90;;
29908;SDS011;36247;51.952;6.146;2022-07-04T06:21:10;9.65;;;5.65;;
29908;SDS011;36247;51.952;6.146;2022-07-04T06:23:36;10.73;;;6.28;;
29908;SDS011;36247;51.952;6.146;2022-07-04T06:26:02;11.68;;;6.50;;
29908;SDS011;36247;51.952;6.146;2022-07-04T06:28:28;13.93;;;6.80;;
29908;SDS011;36247;51.952;6.146;2022-07-04T06:30:54;18.10;;;7.85;;
29908;SDS011;36247;51.952;6.146;2022-07-04T06:33:20;9.75;;;7.32;;
29908;SDS011;36247;51.952;6.146;2022-07-04T06:35:45;11.85;;;7.10;;
29908;SDS011;36247;51.952;6.146;2022-07-04T06:38:15;13.82;;;7.47;;
29908;SDS011;36247;51.952;6.146;2022-07-04T06:40:42;11.77;;;6.93;;
29908;SDS011;36247;51.952;6.146;2022-07-04T06:43:09;12.57;;;8.15;;
29908;SDS011;36247;51.952;6.146;2022-07-04T06:45:35;11.43;;;7.40;;
29908;SDS011;36247;51.952;6.146;2022-07-04T06:48:01;15.55;;;7.95;;
29908;SDS011;36247;51.952;6.146;2022-07-04T06:50:31;9.75;;;6.45;;
29908;SDS011;36247;51.952;6.146;2022-07-04T06:53:04;11.30;;;6.63;;
29908;SDS011;36247;51.952;6.146;2022-07-04T06:57:56;13.43;;;6.80;;
29908;SDS011;36247;51.952;6.146;2022-07-04T07:00:22;12.45;;;6.50;;
29908;SDS011;36247;51.952;6.146;2022-07-04T07:02:47;10.05;;;7.50;;
29908;SDS011;36247;51.952;6.146;2022-07-04T07:05:13;13.10;;;7.10;;
29908;SDS011;36247;51.952;6.146;2022-07-04T07:07:39;11.55;;;7.50;;
29908;SDS011;36247;51.952;6.146;2022-07-04T07:10:04;13.57;;;8.20;;
29908;SDS011;36247;51.952;6.146;2022-07-04T07:12:32;11.70;;;7.53;;
29908;SDS011;36247;51.952;6.146;2022-07-04T07:14:59;12.50;;;7.40;;
29908;SDS011;36247;51.952;6.146;2022-07-04T07:17:25;13.52;;;7.10;;
29908;SDS011;36247;51.952;6.146;2022-07-04T07:19:53;14.95;;;7.00;;
29908;SDS011;36247;51.952;6.146;2022-07-04T07:22:19;11.45;;;6.93;;
29908;SDS011;36247;51.952;6.146;2022-07-04T07:24:45;12.25;;;7.00;;
29908;SDS011;36247;51.952;6.146;2022-07-04T07:27:11;10.05;;;6.43;;
29908;SDS011;36247;51.952;6.146;2022-07-04T07:29:37;9.05;;;5.47;;
29908;SDS011;36247;51.952;6.146;2022-07-04T07:32:03;12.55;;;7.43;;
29908;SDS011;36247;51.952;6.146;2022-07-04T07:34:30;8.73;;;6.43;;
29908;SDS011;36247;51.952;6.146;2022-07-04T07:36:56;13.68;;;7.38;;
29908;SDS011;36247;51.952;6.146;2022-07-04T07:39:21;12.02;;;7.28;;
29908;SDS011;36247;51.952;6.146;2022-07-04T07:41:47;13.38;;;6.43;;
29908;SDS011;36247;51.952;6.146;2022-07-04T07:44:12;13.48;;;6.43;;
29908;SDS011;36247;51.952;6.146;2022-07-04T07:46:38;9.20;;;6.05;;
29908;SDS011;36247;51.952;6.146;2022-07-04T07:49:04;12.10;;;6.25;;
29908;SDS011;36247;51.952;6.146;2022-07-04T07:51:29;12.23;;;6.65;;
29908;SDS011;36247;51.952;6.146;2022-07-04T07:53:55;15.77;;;6.88;;
29908;SDS011;36247;51.952;6.146;2022-07-04T07:56:21;9.05;;;5.32;;
29908;SDS011;36247;51.952;6.146;2022-07-04T07:58:47;21.23;;;6.57;;
29908;SDS011;36247;51.952;6.146;2022-07-04T08:01:13;9.30;;;5.13;;
29908;SDS011;36247;51.952;6.146;2022-07-04T08:03:39;11.10;;;5.97;;
29908;SDS011;36247;51.952;6.146;2022-07-04T08:06:23;10.63;;;4.90;;
29908;SDS011;36247;51.952;6.146;2022-07-04T08:08:49;13.55;;;6.47;;
29908;SDS011;36247;51.952;6.146;2022-07-04T08:11:14;12.98;;;5.15;;
29908;SDS011;36247;51.952;6.146;2022-07-04T08:13:40;16.42;;;5.40;;
29908;SDS011;36247;51.952;6.146;2022-07-04T08:16:06;7.93;;;4.75;;
29908;SDS011;36247;51.952;6.146;2022-07-04T08:18:32;16.83;;;5.13;;
29908;SDS011;36247;51.952;6.146;2022-07-04T08:20:58;10.32;;;5.40;;
29908;SDS011;36247;51.952;6.146;2022-07-04T08:23:26;11.23;;;5.25;;
29908;SDS011;36247;51.952;6.146;2022-07-04T08:25:52;7.55;;;5.25;;
29908;SDS011;36247;51.952;6.146;2022-07-04T08:28:18;12.18;;;6.15;;
29908;SDS011;36247;51.952;6.146;2022-07-04T08:30:43;10.55;;;4.82;;
29908;SDS011;36247;51.952;6.146;2022-07-04T08:33:10;11.93;;;5.97;;
29908;SDS011;36247;51.952;6.146;2022-07-04T08:35:35;11.55;;;5.00;;
29908;SDS011;36247;51.952;6.146;2022-07-04T08:38:00;8.27;;;3.42;;
29908;SDS011;36247;51.952;6.146;2022-07-04T08:40:26;10.82;;;4.35;;
29908;SDS011;36247;51.952;6.146;2022-07-04T08:42:53;10.93;;;4.30;;
29908;SDS011;36247;51.952;6.146;2022-07-04T08:45:26;9.48;;;4.65;;
29908;SDS011;36247;51.952;6.146;2022-07-04T08:47:58;13.88;;;4.40;;
29908;SDS011;36247;51.952;6.146;2022-07-04T08:50:26;8.07;;;3.88;;
29908;SDS011;36247;51.952;6.146;2022-07-04T08:53:02;9.30;;;3.88;;
29908;SDS011;36247;51.952;6.146;2022-07-04T08:55:32;8.75;;;4.13;;
29908;SDS011;36247;51.952;6.146;2022-07-04T08:58:17;11.73;;;4.70;;
29908;SDS011;36247;51.952;6.146;2022-07-04T09:01:01;8.90;;;4.03;;
29908;SDS011;36247;51.952;6.146;2022-07-04T09:03:41;11.93;;;4.10;;
29908;SDS011;36247;51.952;6.146;2022-07-04T09:06:09;13.23;;;4.72;;
29908;SDS011;36247;51.952;6.146;2022-07-04T09:08:39;7.30;;;3.90;;
29908;SDS011;36247;51.952;6.146;2022-07-04T09:11:05;9.70;;;4.30;;
29908;SDS011;36247;51.952;6.146;2022-07-04T09:13:31;10.63;;;4.50;;
29908;SDS011;36247;51.952;6.146;2022-07-04T09:15:58;7.97;;;3.80;;
29908;SDS011;36247;51.952;6.146;2022-07-04T09:21:05;8.13;;;3.83;;
29908;SDS011;36247;51.952;6.146;2022-07-04T09:23:42;8.63;;;3.63;;
29908;SDS011;36247;51.952;6.146;2022-07-04T09:26:20;13.52;;;4.05;;
29908;SDS011;36247;51.952;6.146;2022-07-04T09:28:51;8.88;;;3.70;;
29908;SDS011;36247;51.952;6.146;2022-07-04T09:31:19;8.77;;;3.53;;
29908;SDS011;36247;51.952;6.146;2022-07-04T09:33:55;12.15;;;4.43;;
29908;SDS011;36247;51.952;6.146;2022-07-04T09:36:26;7.63;;;2.97;;
29908;SDS011;36247;51.952;6.146;2022-07-04T09:39:10;9.70;;;3.17;;
29908;SDS011;36247;51.952;6.146;2022-07-04T09:41:57;5.47;;;2.88;;
29908;SDS011;36247;51.952;6.146;2022-07-04T09:44:26;8.40;;;4.30;;
29908;SDS011;36247;51.952;6.146;2022-07-04T09:47:18;7.38;;;3.25;;
29908;SDS011;36247;51.952;6.146;2022-07-04T09:50:04;6.32;;;3.20;;
29908;SDS011;36247;51.952;6.146;2022-07-04T09:52:30;8.20;;;3.97;;
29908;SDS011;36247;51.952;6.146;2022-07-04T09:55:00;6.30;;;3.28;;
29908;SDS011;36247;51.952;6.146;2022-07-04T09:57:29;7.40;;;3.95;;
29908;SDS011;36247;51.952;6.146;2022-07-04T09:59:54;5.97;;;2.83;;
29908;SDS011;36247;51.952;6.146;2022-07-04T10:02:20;9.00;;;3.75;;
29908;SDS011;36247;51.952;6.146;2022-07-04T10:04:50;9.35;;;3.78;;
29908;SDS011;36247;51.952;6.146;2022-07-04T10:07:30;8.10;;;3.83;;
29908;SDS011;36247;51.952;6.146;2022-07-04T10:09:57;8.52;;;4.13;;
29908;SDS011;36247;51.952;6.146;2022-07-04T10:12:27;7.38;;;3.92;;
29908;SDS011;36247;51.952;6.146;2022-07-04T10:14:55;9.55;;;4.90;;
29908;SDS011;36247;51.952;6.146;2022-07-04T10:17:21;9.32;;;4.57;;
29908;SDS011;36247;51.952;6.146;2022-07-04T10:19:47;11.48;;;5.25;;
29908;SDS011;36247;51.952;6.146;2022-07-04T10:22:16;8.55;;;4.20;;
29908;SDS011;36247;51.952;6.146;2022-07-04T10:24:43;9.20;;;3.78;;
29908;SDS011;36247;51.952;6.146;2022-07-04T10:27:09;9.07;;;4.43;;
29908;SDS011;36247;51.952;6.146;2022-07-04T10:29:36;8.05;;;3.97;;
29908;SDS011;36247;51.952;6.146;2022-07-04T10:32:02;7.50;;;4.50;;
29908;SDS011;36247;51.952;6.146;2022-07-04T10:34:28;8.68;;;4.18;;
29908;SDS011;36247;51.952;6.146;2022-07-04T10:36:54;10.65;;;4.63;;
29908;SDS011;36247;51.952;6.146;2022-07-04T10:39:23;9.13;;;4.80;;
29908;SDS011;36247;51.952;6.146;2022-07-04T10:41:58;9.18;;;5.55;;
29908;SDS011;36247;51.952;6.146;2022-07-04T10:44:26;8.70;;;4.85;;
29908;SDS011;36247;51.952;6.146;2022-07-04T10:46:59;8.88;;;5.10;;
29908;SDS011;36247;51.952;6.146;2022-07-04T10:49:26;14.32;;;4.45;;
29908;SDS011;36247;51.952;6.146;2022-07-04T10:52:12;10.93;;;4.57;;
29908;SDS011;36247;51.952;6.146;2022-07-04T10:54:39;15.82;;;5.25;;
29908;SDS011;36247;51.952;6.146;2022-07-04T10:57:10;7.93;;;4.28;;
29908;SDS011;36247;51.952;6.146;2022-07-04T11:00:23;11.23;;;4.13;;
29908;SDS011;36247;51.952;6.146;2022-07-04T11:02:34;7.97;;;4.38;;
29908;SDS011;36247;51.952;6.146;2022-07-04T11:05:03;10.93;;;4.30;;
29908;SDS011;36247;51.952;6.146;2022-07-04T11:15:55;9.75;;;3.72;;
29908;SDS011;36247;51.952;6.146;2022-07-04T11:18:12;8.73;;;3.58;;
29908;SDS011;36247;51.952;6.146;2022-07-04T11:20:42;6.40;;;3.30;;
29908;SDS011;36247;51.952;6.146;2022-07-04T11:23:13;6.35;;;3.55;;
29908;SDS011;36247;51.952;6.146;2022-07-04T11:25:42;5.53;;;2.63;;
29908;SDS011;36247;51.952;6.146;2022-07-04T11:28:22;26.83;;;5.45;;
29908;SDS011;36247;51.952;6.146;2022-07-04T11:30:58;5.10;;;2.95;;
29908;SDS011;36247;51.952;6.146;2022-07-04T11:33:29;6.35;;;3.63;;
29908;SDS011;36247;51.952;6.146;2022-07-04T11:41:25;6.65;;;3.60;;
29908;SDS011;36247;51.952;6.146;2022-07-04T11:44:21;5.78;;;3.20;;
29908;SDS011;36247;51.952;6.146;2022-07-04T11:49:42;5.00;;;2.60;;
29908;SDS011;36247;51.952;6.146;2022-07-04T11:52:09;5.78;;;3.08;;
29908;SDS011;36247;51.952;6.146;2022-07-04T11:54:35;4.28;;;2.72;;
29908;SDS011;36247;51.952;6.146;2022-07-04T11:57:11;6.72;;;3.33;;
29908;SDS011;36247;51.952;6.146;2022-07-04T11:59:42;6.38;;;3.83;;
29908;SDS011;36247;51.952;6.146;2022-07-04T12:02:10;5.30;;;3.30;;
29908;SDS011;36247;51.952;6.146;2022-07-04T12:04:37;6.03;;;3.22;;
29908;SDS011;36247;51.952;6.146;2022-07-04T12:07:10;5.88;;;3.35;;
29908;SDS011;36247;51.952;6.146;2022-07-04T12:09:41;6.50;;;2.90;;
29908;SDS011;36247;51.952;6.146;2022-07-04T12:12:07;7.03;;;3.05;;
29908;SDS011;36247;51.952;6.146;2022-07-04T12:14:33;6.85;;;3.38;;
29908;SDS011;36247;51.952;6.146;2022-07-04T12:25:32;5.90;;;2.83;;
29908;SDS011;36247;51.952;6.146;2022-07-04T12:28:08;6.10;;;2.60;;
29908;SDS011;36247;51.952;6.146;2022-07-04T12:30:38;9.60;;;3.00;;
29908;SDS011;36247;51.952;6.146;2022-07-04T12:33:06;11.63;;;2.90;;
29908;SDS011;36247;51.952;6.146;2022-07-04T12:35:33;7.43;;;2.33;;
29908;SDS011;36247;51.952;6.146;2022-07-04T12:38:07;4.38;;;2.50;;
29908;SDS011;36247;51.952;6.146;2022-07-04T12:40:35;8.38;;;2.80;;
29908;SDS011;36247;51.952;6.146;2022-07-04T12:43:02;6.95;;;2.92;;
29908;SDS011;36247;51.952;6.146;2022-07-04T12:45:41;4.32;;;2.78;;
29908;SDS011;36247;51.952;6.146;2022-07-04T12:48:16;6.35;;;2.58;;
29908;SDS011;36247;51.952;6.146;2022-07-04T12:50:54;4.57;;;2.28;;
29908;SDS011;36247;51.952;6.146;2022-07-04T12:53:37;4.47;;;2.13;;
29908;SDS011;36247;51.952;6.146;2022-07-04T12:56:04;5.93;;;2.30;;
29908;SDS011;36247;51.952;6.146;2022-07-04T12:58:30;3.90;;;2.38;;
29908;SDS011;36247;51.952;6.146;2022-07-04T13:00:56;5.80;;;2.55;;
29908;SDS011;36247;51.952;6.146;2022-07-04T13:03:22;4.72;;;2.40;;
29908;SDS011;36247;51.952;6.146;2022-07-04T13:05:48;5.85;;;2.67;;
29908;SDS011;36247;51.952;6.146;2022-07-04T13:08:14;5.00;;;2.50;;
29908;SDS011;36247;51.952;6.146;2022-07-04T13:10:43;4.53;;;2.53;;
29908;SDS011;36247;51.952;6.146;2022-07-04T13:13:09;4.80;;;2.38;;
29908;SDS011;36247;51.952;6.146;2022-07-04T13:15:35;5.75;;;2.55;;
29908;SDS011;36247;51.952;6.146;2022-07-04T13:18:00;3.88;;;2.10;;
29908;SDS011;36247;51.952;6.146;2022-07-04T13:20:27;6.30;;;2.10;;
29908;SDS011;36247;51.952;6.146;2022-07-04T13:22:52;3.75;;;2.40;;
29908;SDS011;36247;51.952;6.146;2022-07-04T13:25:18;4.43;;;2.95;;
29908;SDS011;36247;51.952;6.146;2022-07-04T13:27:44;5.53;;;2.38;;
29908;SDS011;36247;51.952;6.146;2022-07-04T13:30:10;3.22;;;2.30;;
29908;SDS011;36247;51.952;6.146;2022-07-04T13:32:36;5.05;;;2.70;;
29908;SDS011;36247;51.952;6.146;2022-07-04T13:35:02;5.05;;;2.45;;
29908;SDS011;36247;51.952;6.146;2022-07-04T13:37:28;3.35;;;2.20;;
29908;SDS011;36247;51.952;6.146;2022-07-04T13:39:54;4.10;;;2.30;;
29908;SDS011;36247;51.952;6.146;2022-07-04T13:42:20;3.05;;;2.17;;
29908;SDS011;36247;51.952;6.146;2022-07-04T13:45:05;3.50;;;2.47;;
29908;SDS011;36247;51.952;6.146;2022-07-04T13:47:32;6.68;;;2.20;;
29908;SDS011;36247;51.952;6.146;2022-07-04T13:49:59;3.42;;;2.13;;
29908;SDS011;36247;51.952;6.146;2022-07-04T13:52:25;6.80;;;2.05;;
29908;SDS011;36247;51.952;6.146;2022-07-04T13:54:51;2.05;;;1.52;;
29908;SDS011;36247;51.952;6.146;2022-07-04T13:57:17;3.95;;;2.33;;
29908;SDS011;36247;51.952;6.146;2022-07-04T13:59:42;7.15;;;2.10;;
29908;SDS011;36247;51.952;6.146;2022-07-04T14:02:10;5.43;;;2.30;;
29908;SDS011;36247;51.952;6.146;2022-07-04T14:04:35;3.30;;;2.20;;
29908;SDS011;36247;51.952;6.146;2022-07-04T14:07:01;4.00;;;1.77;;
29908;SDS011;36247;51.952;6.146;2022-07-04T14:09:27;2.90;;;1.70;;
29908;SDS011;36247;51.952;6.146;2022-07-04T14:11:52;2.88;;;1.88;;
29908;SDS011;36247;51.952;6.146;2022-07-04T14:14:17;4.45;;;1.85;;
29908;SDS011;36247;51.952;6.146;2022-07-04T14:16:44;5.20;;;2.40;;
29908;SDS011;36247;51.952;6.146;2022-07-04T14:19:10;2.72;;;1.83;;
29908;SDS011;36247;51.952;6.146;2022-07-04T14:21:35;3.03;;;1.98;;
29908;SDS011;36247;51.952;6.146;2022-07-04T14:24:00;2.45;;;1.95;;
29908;SDS011;36247;51.952;6.146;2022-07-04T14:26:26;2.20;;;1.80;;
29908;SDS011;36247;51.952;6.146;2022-07-04T14:28:51;4.05;;;2.13;;
29908;SDS011;36247;51.952;6.146;2022-07-04T14:31:17;6.10;;;2.20;;
29908;SDS011;36247;51.952;6.146;2022-07-04T14:33:44;4.07;;;2.20;;
29908;SDS011;36247;51.952;6.146;2022-07-04T14:36:09;3.95;;;2.00;;
29908;SDS011;36247;51.952;6.146;2022-07-04T14:38:36;3.70;;;2.40;;
29908;SDS011;36247;51.952;6.146;2022-07-04T14:41:03;3.58;;;2.33;;
29908;SDS011;36247;51.952;6.146;2022-07-04T14:43:41;4.30;;;2.08;;
29908;SDS011;36247;51.952;6.146;2022-07-04T14:46:08;5.43;;;2.42;;
29908;SDS011;36247;51.952;6.146;2022-07-04T14:48:34;5.70;;;2.42;;
29908;SDS011;36247;51.952;6.146;2022-07-04T14:51:00;3.92;;;2.22;;
29908;SDS011;36247;51.952;6.146;2022-07-04T14:53:26;5.30;;;2.55;;
29908;SDS011;36247;51.952;6.146;2022-07-04T14:55:52;5.93;;;2.63;;
29908;SDS011;36247;51.952;6.146;2022-07-04T14:58:18;2.35;;;2.03;;
29908;SDS011;36247;51.952;6.146;2022-07-04T15:00:44;4.57;;;2.70;;
29908;SDS011;36247;51.952;6.146;2022-07-04T15:03:10;3.53;;;2.13;;
29908;SDS011;36247;51.952;6.146;2022-07-04T15:05:35;3.75;;;2.30;;
29908;SDS011;36247;51.952;6.146;2022-07-04T15:08:01;4.82;;;2.67;;
29908;SDS011;36247;51.952;6.146;2022-07-04T15:10:26;4.10;;;2.22;;
29908;SDS011;36247;51.952;6.146;2022-07-04T15:12:52;2.35;;;2.03;;